Andover, VA

11:57 PM EDT on August 24, 2016 (GMT -0400)
Lonesome Pine

Weather History for KLNP - March, 2014

Change the Weather History Date:

Friday, March 28, 2014

  Actual Average Record
Temperature  
Mean Temperature 54 °F -  
Max Temperature 59 °F 55 °F 75 °F (2004)
Min Temperature 50 °F 36 °F 21 °F (2001)
Degree Days  
Heating Degree Days 10    
Growing Degree Days 4 (Base 50)    
Moisture  
Dew Point 41 °F    
Average Humidity 66    
Maximum Humidity 100    
Minimum Humidity 28    
Precipitation  
Precipitation 0.01 in - - ()
Sea Level Pressure  
Sea Level Pressure 30.07 in    
Wind  
Wind Speed 13 mph (SSW)    
Max Wind Speed 23 mph    
Max Gust Speed 31 mph    
Visibility 10 miles    
Events Rain    
Averages and records for this station are not official NWS values.
T = Trace of Precipitation, MM = Missing Value Source: NWS Daily Summary

Daily Weather History Graph

Daily Weather History Graph

Search for Another Location

Airport or City:

Trip Planner

Search our weather history database for the weather conditions in past years. The results will help you decide how hot, cold, wet, or windy it might be!

Date:

Astronomy

Mar. 28, 2014 Rise Set
Actual Time 7:21 AM EDT 7:49 PM EDT
Civil Twilight 6:55 AM EDT 8:15 PM EDT
Nautical Twilight 6:25 AM EDT 8:45 PM EDT
Astronomical Twilight 5:54 AM EDT 9:17 PM EDT
Moon 5:48 AM EDT (3/28) 5:46 PM EDT (3/28)
Length of Visible Light 13h 19m
Length of Day
12h 27m
Waning Crescent, 6% of the Moon is Illuminated
Mar 28
Waning Crescent
Mar 30
New
Apr 7
First Quarter
Apr 15
Full
Apr 22
Last Quarter

Hourly Weather History & Observations

Time (EDT) Temp. Dew Point Humidity Pressure Visibility Wind Dir Wind Speed Gust Speed Precip Events Conditions
12:15 AM 50.0 °F 17.6 °F 28% 30.07 in 10.0 mi South 19.6 mph 25.3 mph N/A   Clear
12:35 AM 50.0 °F 19.4 °F 30% 30.06 in 10.0 mi South 23.0 mph 31.1 mph N/A   Scattered Clouds
12:55 AM 50.0 °F 19.4 °F 30% 30.07 in 10.0 mi South 19.6 mph 28.8 mph N/A   Scattered Clouds
1:15 AM 50.0 °F 19.4 °F 30% 30.06 in 10.0 mi South 15.0 mph 23.0 mph N/A   Mostly Cloudy
1:35 AM 50.0 °F 19.4 °F 30% 30.07 in 10.0 mi South 13.8 mph 19.6 mph N/A   Overcast
1:55 AM 50.0 °F 19.4 °F 30% 30.07 in 10.0 mi South 15.0 mph 24.2 mph N/A   Overcast
2:15 AM 50.0 °F 21.2 °F 32% 30.07 in 10.0 mi South 11.5 mph - N/A   Scattered Clouds
2:35 AM 50.0 °F 21.2 °F 32% 30.05 in 10.0 mi South 17.3 mph 31.1 mph N/A   Mostly Cloudy
2:55 AM 50.0 °F 23.0 °F 35% 30.05 in 10.0 mi South 21.9 mph 29.9 mph N/A   Overcast
3:15 AM 51.8 °F 24.8 °F 35% 30.05 in 10.0 mi South 17.3 mph 26.5 mph N/A   Overcast
3:35 AM 50.0 °F 28.4 °F 43% 30.05 in 10.0 mi South 12.7 mph 19.6 mph N/A   Overcast
3:55 AM 50.0 °F 28.4 °F 43% 30.03 in 10.0 mi South 12.7 mph 18.4 mph N/A   Overcast
4:15 AM 51.8 °F 30.2 °F 44% 30.02 in 10.0 mi South 12.7 mph 21.9 mph N/A   Overcast
4:35 AM 51.8 °F 30.2 °F 44% 30.02 in 10.0 mi South 11.5 mph 19.6 mph N/A   Overcast
4:55 AM 51.8 °F 30.2 °F 44% 30.02 in 10.0 mi South 15.0 mph 20.7 mph N/A   Overcast
5:15 AM 51.8 °F 32.0 °F 47% 30.01 in 10.0 mi South 13.8 mph 19.6 mph N/A   Overcast
5:35 AM 51.8 °F 32.0 °F 47% 30.01 in 10.0 mi SSE 13.8 mph 27.6 mph N/A   Overcast
5:55 AM 51.8 °F 32.0 °F 47% 30.02 in 10.0 mi South 15.0 mph 23.0 mph N/A   Overcast
6:15 AM 51.8 °F 33.8 °F 50% 30.01 in 10.0 mi SSE 16.1 mph 19.6 mph N/A   Light Drizzle
6:35 AM 51.8 °F 33.8 °F 50% 30.00 in 10.0 mi South 11.5 mph 19.6 mph N/A   Overcast
6:55 AM 51.8 °F 35.6 °F 54% 30.00 in 10.0 mi South 11.5 mph 20.7 mph N/A   Overcast
7:15 AM 51.8 °F 35.6 °F 54% 30.00 in 10.0 mi South 12.7 mph 20.7 mph N/A Rain Light Rain
7:35 AM 50.0 °F 35.6 °F 58% 30.02 in 10.0 mi SSE 9.2 mph - N/A   Overcast
8:15 AM 51.8 °F 37.4 °F 58% 30.06 in 10.0 mi SSW 10.4 mph 16.1 mph N/A   Overcast
8:35 AM 51.8 °F 41.0 °F 67% 30.06 in 10.0 mi SSW 12.7 mph 20.7 mph N/A   Overcast
8:55 AM 51.8 °F 41.0 °F 67% 30.07 in 10.0 mi SSW 16.1 mph 19.6 mph N/A Rain Light Rain
9:15 AM 51.8 °F 42.8 °F 71% 30.07 in 10.0 mi SSW 11.5 mph 17.3 mph N/A Rain Rain
9:35 AM 50.0 °F 42.8 °F 76% 30.07 in 10.0 mi South 9.2 mph - 0.01 in Rain Light Rain
9:55 AM 51.8 °F 44.6 °F 76% 30.07 in 10.0 mi South 9.2 mph - 0.01 in Rain Light Rain
10:15 AM 51.8 °F 44.6 °F 76% 30.07 in 10.0 mi South 10.4 mph - N/A   Overcast
10:35 AM 51.8 °F 44.6 °F 76% 30.07 in 10.0 mi SSW 8.1 mph - N/A Rain Light Rain
10:55 AM 53.6 °F 44.6 °F 72% 30.08 in 10.0 mi SSW 8.1 mph - N/A   Overcast
11:15 AM 55.4 °F 44.6 °F 67% 30.08 in 10.0 mi SSW 11.5 mph 16.1 mph N/A   Overcast
11:35 AM 55.4 °F 44.6 °F 67% 30.09 in 10.0 mi WSW 12.7 mph - N/A   Overcast
11:55 AM 53.6 °F 44.6 °F 72% 30.09 in 10.0 mi SSW 10.4 mph - N/A   Overcast
12:15 PM 53.6 °F 44.6 °F 72% 30.09 in 10.0 mi SW 11.5 mph - N/A   Overcast
12:35 PM 53.6 °F 46.4 °F 77% 30.09 in 10.0 mi SW 11.5 mph - N/A   Overcast
12:55 PM 55.4 °F 46.4 °F 72% 30.08 in 10.0 mi SSW 15.0 mph - N/A   Mostly Cloudy
1:15 PM 55.4 °F 46.4 °F 72% 30.08 in 10.0 mi SW 8.1 mph - N/A   Overcast
1:35 PM 59.0 °F 46.4 °F 63% 30.08 in 10.0 mi SSW 12.7 mph - N/A   Overcast
1:55 PM 57.2 °F 46.4 °F 67% 30.08 in 10.0 mi SW 12.7 mph 20.7 mph N/A   Overcast
2:15 PM 57.2 °F 46.4 °F 67% 30.08 in 10.0 mi SW 11.5 mph - N/A   Overcast
2:35 PM 57.2 °F 46.4 °F 67% 30.08 in 10.0 mi SW 11.5 mph - N/A   Overcast
2:55 PM 57.2 °F 46.4 °F 67% 30.07 in 10.0 mi SW 8.1 mph - N/A   Overcast
3:15 PM 57.2 °F 46.4 °F 67% 30.07 in 10.0 mi SW 9.2 mph - N/A   Overcast
3:35 PM 55.4 °F 46.4 °F 72% 30.07 in 10.0 mi SW 9.2 mph - N/A   Overcast
3:55 PM 57.2 °F 46.4 °F 67% 30.07 in 10.0 mi SW 9.2 mph - N/A   Overcast
4:15 PM 57.2 °F 46.4 °F 67% 30.09 in 10.0 mi SW 10.4 mph - N/A   Overcast
4:35 PM 55.4 °F 46.4 °F 72% 30.09 in 10.0 mi WSW 10.4 mph - N/A   Overcast
4:55 PM 55.4 °F 46.4 °F 72% 30.09 in 10.0 mi SW 8.1 mph - N/A   Overcast
5:15 PM 55.4 °F 48.2 °F 77% 30.09 in 10.0 mi SW 11.5 mph - N/A   Overcast
5:35 PM 55.4 °F 48.2 °F 77% 30.09 in 10.0 mi WSW 6.9 mph - N/A   Overcast
5:55 PM 55.4 °F 48.2 °F 77% 30.09 in 10.0 mi SW 8.1 mph - N/A   Overcast
6:10 PM 55.4 °F 48.2 °F 77% 30.09 in 10.0 mi SW 9.2 mph - N/A   Overcast
6:35 PM 53.6 °F 50.0 °F 88% 30.10 in 10.0 mi SW 8.1 mph - N/A   Overcast
6:55 PM 53.6 °F 50.0 °F 88% 30.10 in 10.0 mi SSW 9.2 mph - N/A   Overcast
7:10 PM 53.6 °F 51.8 °F 94% 30.09 in 10.0 mi SSW 8.1 mph - N/A   Overcast
7:35 PM 53.6 °F 51.8 °F 94% 30.09 in 10.0 mi South 5.8 mph - N/A   Overcast
7:55 PM 55.4 °F 50.0 °F 82% 30.09 in 10.0 mi SSE 5.8 mph - N/A   Overcast
8:15 PM 55.4 °F 50.0 °F 82% 30.09 in 10.0 mi South 5.8 mph - N/A   Overcast
8:35 PM 53.6 °F 50.0 °F 88% 30.09 in 10.0 mi SSW 6.9 mph - N/A   Overcast
8:55 PM 53.6 °F 50.0 °F 88% 30.09 in 10.0 mi SSW 6.9 mph - N/A   Overcast
9:15 PM 53.6 °F 51.8 °F 94% 30.10 in 10.0 mi SSW 6.9 mph - N/A   Light Drizzle
9:35 PM 53.6 °F 51.8 °F 94% 30.10 in 10.0 mi Calm Calm - N/A   Overcast
9:55 PM 53.6 °F 51.8 °F 94% 30.10 in 10.0 mi Calm Calm - N/A   Overcast
10:15 PM 53.6 °F 51.8 °F 94% 30.10 in 10.0 mi Calm Calm - N/A   Overcast
10:35 PM 53.6 °F 51.8 °F 94% 30.10 in 10.0 mi Calm Calm - N/A   Overcast
10:55 PM 53.6 °F 51.8 °F 94% 30.09 in 10.0 mi South 3.5 mph - N/A   Overcast
11:15 PM 53.6 °F 51.8 °F 94% 30.10 in 10.0 mi South 3.5 mph - N/A   Overcast
11:35 PM 53.6 °F 50.0 °F 88% 30.11 in 10.0 mi South 3.5 mph - N/A   Overcast
11:55 PM 51.8 °F 51.8 °F 100% 30.10 in 10.0 mi Calm Calm - N/A Rain Rain